This is the latest recevied weather packets stored in our database for station/object KD0RIH. If no packets are shown the sender has not sent any weather packets the latest 10 day(s).
| Time | Temp. | Humidity | Pressure | Rain* | Wind** | Luminosity | Snow |
|---|---|---|---|---|---|---|---|
| 1777732027 | 15° C | 43% | 1021.4 hPa | 0 mm | - | 565 W/m² | - |
| 1777731723 | 13.89° C | 45% | 1021.5 hPa | 0 mm | - | 545 W/m² | - |
| 1777731421 | 12.78° C | 48% | 1021.4 hPa | 0 mm | - | 526 W/m² | - |
| 1777731119 | 13.33° C | 47% | 1021.6 hPa | 0 mm | - | 509 W/m² | - |
| 1777730513 | 11.11° C | 52% | 1021.4 hPa | 0 mm | - | 463 W/m² | - |
| 1777730209 | 12.22° C | 51% | 1021.4 hPa | 0 mm | - | 452 W/m² | - |
| 1777729906 | 12.78° C | 50% | 1021.3 hPa | 0 mm | - | 220 W/m² | - |
| 1777729603 | 13.33° C | 49% | 1021.4 hPa | 0 mm | - | 413 W/m² | - |
| 1777729299 | 12.78° C | 51% | 1021.2 hPa | 0 mm | - | 391 W/m² | - |
| 1777728996 | 12.22° C | 53% | 1021.3 hPa | 0 mm | - | 369 W/m² | - |
| 1777728693 | 11.67° C | 53% | 1021.3 hPa | 0 mm | - | 348 W/m² | - |
| 1777728390 | 11.67° C | 54% | 1021.4 hPa | 0 mm | - | 327 W/m² | - |
| 1777728087 | 11.11° C | 55% | 1021.2 hPa | 0 mm | - | 306 W/m² | - |
| 1777727784 | 10.56° C | 56% | 1021.2 hPa | 0 mm | - | 283 W/m² | - |
| 1777727481 | 10.56° C | 56% | 1021.1 hPa | 0 mm | - | 263 W/m² | - |
| 1777727178 | 10.56° C | 58% | 1021.1 hPa | 0 mm | - | 140 W/m² | - |
| 1777726876 | 10° C | 60% | 1021.1 hPa | 0 mm | - | 86 W/m² | - |
| 1777726571 | 9.44° C | 62% | 1021.1 hPa | 0 mm | - | 211 W/m² | - |
| 1777726269 | 10° C | 60% | 1021 hPa | 0 mm | - | 194 W/m² | - |
| 1777725966 | 8.89° C | 65% | 1021.1 hPa | 0 mm | - | 177 W/m² | - |
| 1777725663 | 8.33° C | 67% | 1020.9 hPa | 0 mm | - | 159 W/m² | - |
| 1777725361 | 7.78° C | 67% | 1021 hPa | 0 mm | - | 142 W/m² | - |
| 1777725058 | 7.78° C | 69% | 1021 hPa | 0 mm | - | 126 W/m² | - |
| 1777724754 | 6.67° C | 71% | 1020.9 hPa | 0 mm | - | 111 W/m² | - |
| 1777724452 | 6.67° C | 71% | 1020.8 hPa | 0 mm | - | 98 W/m² | - |
* Rain latest hour (hover to see other rain measurements)
** Current wind speed in m/s (hover to see current wind gust speed)